sensor_id;sensor_type;location;lat;lon;timestamp;P1;durP1;ratioP1;P2;durP2;ratioP2
11269;SDS011;5692;48.956;9.200;2022-12-07T00:00:31;113.15;;;107.72;;
11269;SDS011;5692;48.956;9.200;2022-12-07T00:02:57;106.47;;;101.37;;
11269;SDS011;5692;48.956;9.200;2022-12-07T00:05:23;135.70;;;129.18;;
11269;SDS011;5692;48.956;9.200;2022-12-07T00:07:49;124.40;;;118.40;;
11269;SDS011;5692;48.956;9.200;2022-12-07T00:10:15;118.45;;;112.75;;
11269;SDS011;5692;48.956;9.200;2022-12-07T00:12:41;114.25;;;108.75;;
11269;SDS011;5692;48.956;9.200;2022-12-07T00:15:07;110.30;;;105.00;;
11269;SDS011;5692;48.956;9.200;2022-12-07T00:17:33;109.93;;;104.63;;
11269;SDS011;5692;48.956;9.200;2022-12-07T00:19:59;105.38;;;100.30;;
11269;SDS011;5692;48.956;9.200;2022-12-07T00:22:25;115.47;;;109.93;;
11269;SDS011;5692;48.956;9.200;2022-12-07T00:24:51;114.50;;;109.00;;
11269;SDS011;5692;48.956;9.200;2022-12-07T00:27:17;115.38;;;109.85;;
11269;SDS011;5692;48.956;9.200;2022-12-07T00:29:43;115.80;;;110.20;;
11269;SDS011;5692;48.956;9.200;2022-12-07T00:32:09;118.80;;;113.10;;
11269;SDS011;5692;48.956;9.200;2022-12-07T00:34:35;118.78;;;113.07;;
11269;SDS011;5692;48.956;9.200;2022-12-07T00:37:01;129.25;;;123.05;;
11269;SDS011;5692;48.956;9.200;2022-12-07T00:39:27;123.35;;;117.43;;
11269;SDS011;5692;48.956;9.200;2022-12-07T00:41:53;118.90;;;113.20;;
11269;SDS011;5692;48.956;9.200;2022-12-07T00:44:19;116.22;;;110.63;;
11269;SDS011;5692;48.956;9.200;2022-12-07T00:46:45;114.93;;;109.43;;
11269;SDS011;5692;48.956;9.200;2022-12-07T00:49:11;117.75;;;112.10;;
11269;SDS011;5692;48.956;9.200;2022-12-07T00:51:37;119.32;;;113.60;;
11269;SDS011;5692;48.956;9.200;2022-12-07T00:54:03;118.15;;;112.47;;
11269;SDS011;5692;48.956;9.200;2022-12-07T00:56:29;121.93;;;116.07;;
11269;SDS011;5692;48.956;9.200;2022-12-07T01:01:21;123.13;;;117.23;;
11269;SDS011;5692;48.956;9.200;2022-12-07T01:03:47;126.95;;;120.85;;
11269;SDS011;5692;48.956;9.200;2022-12-07T01:06:14;118.63;;;112.93;;
11269;SDS011;5692;48.956;9.200;2022-12-07T01:08:40;124.82;;;118.82;;
11269;SDS011;5692;48.956;9.200;2022-12-07T01:11:07;117.82;;;112.15;;
11269;SDS011;5692;48.956;9.200;2022-12-07T01:13:35;120.97;;;115.15;;
11269;SDS011;5692;48.956;9.200;2022-12-07T01:16:02;123.53;;;117.60;;
11269;SDS011;5692;48.956;9.200;2022-12-07T01:18:29;125.55;;;119.55;;
11269;SDS011;5692;48.956;9.200;2022-12-07T01:20:59;124.53;;;118.55;;
11269;SDS011;5692;48.956;9.200;2022-12-07T01:23:25;115.22;;;109.72;;
11269;SDS011;5692;48.956;9.200;2022-12-07T01:25:55;116.93;;;111.32;;
11269;SDS011;5692;48.956;9.200;2022-12-07T01:28:21;117.30;;;111.70;;
11269;SDS011;5692;48.956;9.200;2022-12-07T01:33:22;114.15;;;108.65;;
11269;SDS011;5692;48.956;9.200;2022-12-07T01:35:48;114.35;;;108.85;;
11269;SDS011;5692;48.956;9.200;2022-12-07T01:38:14;113.55;;;108.10;;
11269;SDS011;5692;48.956;9.200;2022-12-07T01:40:40;119.65;;;113.93;;
11269;SDS011;5692;48.956;9.200;2022-12-07T01:43:14;112.40;;;107.00;;
11269;SDS011;5692;48.956;9.200;2022-12-07T01:45:42;117.88;;;112.22;;
11269;SDS011;5692;48.956;9.200;2022-12-07T01:48:08;122.55;;;116.65;;
11269;SDS011;5692;48.956;9.200;2022-12-07T01:50:35;111.00;;;105.68;;
11269;SDS011;5692;48.956;9.200;2022-12-07T01:53:02;110.05;;;104.75;;
11269;SDS011;5692;48.956;9.200;2022-12-07T01:55:30;119.60;;;113.85;;
11269;SDS011;5692;48.956;9.200;2022-12-07T01:57:56;112.13;;;106.72;;
11269;SDS011;5692;48.956;9.200;2022-12-07T02:00:22;114.00;;;108.50;;
11269;SDS011;5692;48.956;9.200;2022-12-07T02:02:51;113.38;;;107.93;;
11269;SDS011;5692;48.956;9.200;2022-12-07T02:05:18;119.93;;;114.13;;
11269;SDS011;5692;48.956;9.200;2022-12-07T02:07:45;112.40;;;107.00;;
11269;SDS011;5692;48.956;9.200;2022-12-07T02:10:16;112.38;;;106.97;;
11269;SDS011;5692;48.956;9.200;2022-12-07T02:12:43;113.47;;;108.03;;
11269;SDS011;5692;48.956;9.200;2022-12-07T02:15:10;111.63;;;106.22;;
11269;SDS011;5692;48.956;9.200;2022-12-07T02:25:23;118.95;;;113.25;;
11269;SDS011;5692;48.956;9.200;2022-12-07T02:27:57;120.20;;;114.43;;
11269;SDS011;5692;48.956;9.200;2022-12-07T02:30:25;121.63;;;115.80;;
11269;SDS011;5692;48.956;9.200;2022-12-07T02:35:36;114.00;;;108.50;;
11269;SDS011;5692;48.956;9.200;2022-12-07T02:38:09;119.50;;;113.75;;
11269;SDS011;5692;48.956;9.200;2022-12-07T02:41:00;126.13;;;120.05;;
11269;SDS011;5692;48.956;9.200;2022-12-07T02:43:25;120.85;;;115.05;;
11269;SDS011;5692;48.956;9.200;2022-12-07T02:45:52;120.70;;;114.90;;
11269;SDS011;5692;48.956;9.200;2022-12-07T02:48:18;109.88;;;104.60;;
11269;SDS011;5692;48.956;9.200;2022-12-07T02:50:48;109.13;;;103.88;;
11269;SDS011;5692;48.956;9.200;2022-12-07T02:53:30;110.25;;;104.95;;
11269;SDS011;5692;48.956;9.200;2022-12-07T02:55:57;104.30;;;99.30;;
11269;SDS011;5692;48.956;9.200;2022-12-07T03:03:37;103.10;;;98.13;;
11269;SDS011;5692;48.956;9.200;2022-12-07T03:06:20;112.10;;;106.72;;
11269;SDS011;5692;48.956;9.200;2022-12-07T03:08:51;118.22;;;112.53;;
11269;SDS011;5692;48.956;9.200;2022-12-07T03:11:23;111.93;;;106.53;;
11269;SDS011;5692;48.956;9.200;2022-12-07T03:13:58;108.70;;;103.47;;
11269;SDS011;5692;48.956;9.200;2022-12-07T03:16:30;117.78;;;112.07;;
11269;SDS011;5692;48.956;9.200;2022-12-07T03:19:00;119.05;;;113.35;;
11269;SDS011;5692;48.956;9.200;2022-12-07T03:21:32;121.65;;;115.80;;
11269;SDS011;5692;48.956;9.200;2022-12-07T03:24:00;117.18;;;111.53;;
11269;SDS011;5692;48.956;9.200;2022-12-07T03:26:30;116.13;;;110.53;;
11269;SDS011;5692;48.956;9.200;2022-12-07T03:28:58;124.20;;;118.22;;
11269;SDS011;5692;48.956;9.200;2022-12-07T03:31:28;118.82;;;113.13;;
11269;SDS011;5692;48.956;9.200;2022-12-07T03:34:07;119.63;;;113.90;;
11269;SDS011;5692;48.956;9.200;2022-12-07T03:36:37;111.97;;;106.57;;
11269;SDS011;5692;48.956;9.200;2022-12-07T03:39:15;113.00;;;107.57;;
11269;SDS011;5692;48.956;9.200;2022-12-07T03:41:43;120.63;;;114.82;;
11269;SDS011;5692;48.956;9.200;2022-12-07T03:44:09;131.95;;;125.65;;
11269;SDS011;5692;48.956;9.200;2022-12-07T03:49:42;136.80;;;130.20;;
11269;SDS011;5692;48.956;9.200;2022-12-07T03:52:22;124.97;;;118.97;;
11269;SDS011;5692;48.956;9.200;2022-12-07T03:57:22;127.13;;;121.03;;
11269;SDS011;5692;48.956;9.200;2022-12-07T03:59:48;129.93;;;123.70;;
11269;SDS011;5692;48.956;9.200;2022-12-07T04:02:15;132.75;;;126.35;;
11269;SDS011;5692;48.956;9.200;2022-12-07T04:04:41;135.10;;;128.60;;
11269;SDS011;5692;48.956;9.200;2022-12-07T04:07:08;119.35;;;113.60;;
11269;SDS011;5692;48.956;9.200;2022-12-07T04:09:34;113.65;;;108.18;;
11269;SDS011;5692;48.956;9.200;2022-12-07T04:12:00;112.63;;;107.20;;
11269;SDS011;5692;48.956;9.200;2022-12-07T04:14:26;119.68;;;113.93;;
11269;SDS011;5692;48.956;9.200;2022-12-07T04:16:53;116.45;;;110.85;;
11269;SDS011;5692;48.956;9.200;2022-12-07T04:19:23;108.35;;;103.15;;
11269;SDS011;5692;48.956;9.200;2022-12-07T04:21:50;124.20;;;118.22;;
11269;SDS011;5692;48.956;9.200;2022-12-07T04:24:16;112.70;;;107.30;;
11269;SDS011;5692;48.956;9.200;2022-12-07T04:26:42;111.00;;;105.70;;
11269;SDS011;5692;48.956;9.200;2022-12-07T04:29:09;103.80;;;98.80;;
11269;SDS011;5692;48.956;9.200;2022-12-07T04:31:35;109.43;;;104.13;;
11269;SDS011;5692;48.956;9.200;2022-12-07T04:34:01;108.70;;;103.50;;
11269;SDS011;5692;48.956;9.200;2022-12-07T04:36:28;109.25;;;104.00;;
11269;SDS011;5692;48.956;9.200;2022-12-07T04:38:54;108.75;;;103.55;;
11269;SDS011;5692;48.956;9.200;2022-12-07T04:41:20;110.78;;;105.45;;
11269;SDS011;5692;48.956;9.200;2022-12-07T04:43:52;109.63;;;104.35;;
11269;SDS011;5692;48.956;9.200;2022-12-07T04:46:18;105.30;;;100.22;;
11269;SDS011;5692;48.956;9.200;2022-12-07T04:48:44;104.50;;;99.50;;
11269;SDS011;5692;48.956;9.200;2022-12-07T04:51:10;102.88;;;97.93;;
11269;SDS011;5692;48.956;9.200;2022-12-07T04:53:36;93.75;;;89.25;;
11269;SDS011;5692;48.956;9.200;2022-12-07T04:56:02;99.65;;;94.85;;
11269;SDS011;5692;48.956;9.200;2022-12-07T04:58:28;112.47;;;107.07;;
11269;SDS011;5692;48.956;9.200;2022-12-07T05:00:54;106.60;;;101.50;;
11269;SDS011;5692;48.956;9.200;2022-12-07T05:03:20;107.30;;;102.10;;
11269;SDS011;5692;48.956;9.200;2022-12-07T05:05:46;103.10;;;98.10;;
11269;SDS011;5692;48.956;9.200;2022-12-07T05:08:12;99.22;;;94.43;;
11269;SDS011;5692;48.956;9.200;2022-12-07T05:10:38;98.80;;;94.05;;
11269;SDS011;5692;48.956;9.200;2022-12-07T05:13:04;101.38;;;96.50;;
11269;SDS011;5692;48.956;9.200;2022-12-07T05:15:30;109.15;;;103.93;;
11269;SDS011;5692;48.956;9.200;2022-12-07T05:17:56;105.55;;;100.47;;
11269;SDS011;5692;48.956;9.200;2022-12-07T05:20:22;118.72;;;113.03;;
11269;SDS011;5692;48.956;9.200;2022-12-07T05:22:48;115.38;;;109.82;;
11269;SDS011;5692;48.956;9.200;2022-12-07T05:25:14;101.45;;;96.57;;
11269;SDS011;5692;48.956;9.200;2022-12-07T05:27:40;105.20;;;100.15;;
11269;SDS011;5692;48.956;9.200;2022-12-07T05:30:07;109.40;;;104.13;;
11269;SDS011;5692;48.956;9.200;2022-12-07T05:32:33;106.40;;;101.30;;
11269;SDS011;5692;48.956;9.200;2022-12-07T05:34:59;105.05;;;100.00;;
11269;SDS011;5692;48.956;9.200;2022-12-07T05:37:25;101.55;;;96.65;;
11269;SDS011;5692;48.956;9.200;2022-12-07T05:39:51;104.55;;;99.55;;
11269;SDS011;5692;48.956;9.200;2022-12-07T05:42:17;103.95;;;98.95;;
11269;SDS011;5692;48.956;9.200;2022-12-07T05:44:44;110.40;;;105.10;;
11269;SDS011;5692;48.956;9.200;2022-12-07T05:47:10;105.30;;;100.25;;
11269;SDS011;5692;48.956;9.200;2022-12-07T05:49:36;109.50;;;104.22;;
11269;SDS011;5692;48.956;9.200;2022-12-07T05:52:03;110.45;;;105.15;;
11269;SDS011;5692;48.956;9.200;2022-12-07T05:54:29;117.47;;;111.82;;
11269;SDS011;5692;48.956;9.200;2022-12-07T05:56:55;106.00;;;100.90;;
11269;SDS011;5692;48.956;9.200;2022-12-07T05:59:21;106.65;;;101.55;;
11269;SDS011;5692;48.956;9.200;2022-12-07T06:01:47;111.60;;;106.25;;
11269;SDS011;5692;48.956;9.200;2022-12-07T06:04:13;102.40;;;97.50;;
11269;SDS011;5692;48.956;9.200;2022-12-07T06:06:39;105.95;;;100.85;;
11269;SDS011;5692;48.956;9.200;2022-12-07T06:09:05;102.55;;;97.65;;
11269;SDS011;5692;48.956;9.200;2022-12-07T06:11:31;105.75;;;100.68;;
11269;SDS011;5692;48.956;9.200;2022-12-07T06:14:16;107.47;;;102.28;;
11269;SDS011;5692;48.956;9.200;2022-12-07T06:16:42;105.95;;;100.85;;
11269;SDS011;5692;48.956;9.200;2022-12-07T06:19:08;100.80;;;95.95;;
11269;SDS011;5692;48.956;9.200;2022-12-07T06:21:34;104.95;;;99.90;;
11269;SDS011;5692;48.956;9.200;2022-12-07T06:24:00;104.13;;;99.13;;
11269;SDS011;5692;48.956;9.200;2022-12-07T06:26:27;99.28;;;94.50;;
11269;SDS011;5692;48.956;9.200;2022-12-07T06:28:53;95.55;;;90.95;;
11269;SDS011;5692;48.956;9.200;2022-12-07T06:31:19;97.57;;;92.88;;
11269;SDS011;5692;48.956;9.200;2022-12-07T06:33:45;105.75;;;100.65;;
11269;SDS011;5692;48.956;9.200;2022-12-07T06:36:11;113.05;;;107.60;;
11269;SDS011;5692;48.956;9.200;2022-12-07T06:38:37;107.28;;;102.10;;
11269;SDS011;5692;48.956;9.200;2022-12-07T06:41:03;108.05;;;102.85;;
11269;SDS011;5692;48.956;9.200;2022-12-07T06:43:29;97.38;;;92.68;;
11269;SDS011;5692;48.956;9.200;2022-12-07T06:45:55;101.50;;;96.60;;
11269;SDS011;5692;48.956;9.200;2022-12-07T06:48:21;98.53;;;93.80;;
11269;SDS011;5692;48.956;9.200;2022-12-07T06:50:47;101.88;;;96.97;;
11269;SDS011;5692;48.956;9.200;2022-12-07T06:53:13;105.50;;;100.40;;
11269;SDS011;5692;48.956;9.200;2022-12-07T06:55:39;93.80;;;89.30;;
11269;SDS011;5692;48.956;9.200;2022-12-07T06:58:05;108.60;;;103.40;;
11269;SDS011;5692;48.956;9.200;2022-12-07T07:00:31;99.75;;;94.95;;
11269;SDS011;5692;48.956;9.200;2022-12-07T07:02:59;105.03;;;99.97;;
11269;SDS011;5692;48.956;9.200;2022-12-07T07:05:25;110.28;;;104.97;;
11269;SDS011;5692;48.956;9.200;2022-12-07T07:07:54;113.97;;;108.47;;
11269;SDS011;5692;48.956;9.200;2022-12-07T07:10:20;108.80;;;103.60;;
11269;SDS011;5692;48.956;9.200;2022-12-07T07:12:45;109.45;;;104.18;;
11269;SDS011;5692;48.956;9.200;2022-12-07T07:15:11;112.05;;;106.65;;
11269;SDS011;5692;48.956;9.200;2022-12-07T07:17:37;98.95;;;94.15;;
11269;SDS011;5692;48.956;9.200;2022-12-07T07:20:04;104.70;;;99.65;;
11269;SDS011;5692;48.956;9.200;2022-12-07T07:22:30;107.82;;;102.63;;
11269;SDS011;5692;48.956;9.200;2022-12-07T07:24:56;105.60;;;100.53;;
11269;SDS011;5692;48.956;9.200;2022-12-07T07:27:22;112.60;;;107.20;;
11269;SDS011;5692;48.956;9.200;2022-12-07T07:29:48;112.95;;;107.55;;
11269;SDS011;5692;48.956;9.200;2022-12-07T07:32:14;115.90;;;110.30;;
11269;SDS011;5692;48.956;9.200;2022-12-07T07:34:40;123.65;;;117.75;;
11269;SDS011;5692;48.956;9.200;2022-12-07T07:37:06;108.45;;;103.25;;
11269;SDS011;5692;48.956;9.200;2022-12-07T07:39:32;109.78;;;104.47;;
11269;SDS011;5692;48.956;9.200;2022-12-07T07:41:58;112.22;;;106.82;;
11269;SDS011;5692;48.956;9.200;2022-12-07T07:44:24;111.80;;;106.43;;
11269;SDS011;5692;48.956;9.200;2022-12-07T07:46:50;111.70;;;106.32;;
11269;SDS011;5692;48.956;9.200;2022-12-07T07:49:16;112.03;;;106.63;;
11269;SDS011;5692;48.956;9.200;2022-12-07T07:51:42;113.40;;;107.95;;
11269;SDS011;5692;48.956;9.200;2022-12-07T07:54:08;115.68;;;110.10;;
11269;SDS011;5692;48.956;9.200;2022-12-07T07:56:34;107.13;;;101.97;;
11269;SDS011;5692;48.956;9.200;2022-12-07T07:59:00;111.30;;;105.95;;
11269;SDS011;5692;48.956;9.200;2022-12-07T08:01:26;108.63;;;103.43;;
11269;SDS011;5692;48.956;9.200;2022-12-07T08:03:52;101.78;;;96.88;;
11269;SDS011;5692;48.956;9.200;2022-12-07T08:06:18;103.35;;;98.35;;
11269;SDS011;5692;48.956;9.200;2022-12-07T08:08:44;103.88;;;98.88;;
11269;SDS011;5692;48.956;9.200;2022-12-07T08:11:10;105.05;;;100.00;;
11269;SDS011;5692;48.956;9.200;2022-12-07T08:13:36;91.45;;;87.05;;
11269;SDS011;5692;48.956;9.200;2022-12-07T08:16:03;94.03;;;89.53;;
11269;SDS011;5692;48.956;9.200;2022-12-07T08:18:29;95.80;;;91.20;;
11269;SDS011;5692;48.956;9.200;2022-12-07T08:20:59;96.80;;;92.13;;
11269;SDS011;5692;48.956;9.200;2022-12-07T08:23:28;99.00;;;94.22;;
11269;SDS011;5692;48.956;9.200;2022-12-07T08:25:54;97.38;;;92.68;;
11269;SDS011;5692;48.956;9.200;2022-12-07T08:28:20;93.95;;;89.43;;
11269;SDS011;5692;48.956;9.200;2022-12-07T08:30:46;94.70;;;90.13;;
11269;SDS011;5692;48.956;9.200;2022-12-07T08:33:13;105.78;;;100.68;;
11269;SDS011;5692;48.956;9.200;2022-12-07T08:35:39;102.35;;;97.45;;
11269;SDS011;5692;48.956;9.200;2022-12-07T08:38:05;99.07;;;94.30;;
11269;SDS011;5692;48.956;9.200;2022-12-07T08:40:31;104.80;;;99.78;;
11269;SDS011;5692;48.956;9.200;2022-12-07T08:42:57;105.45;;;100.35;;
11269;SDS011;5692;48.956;9.200;2022-12-07T08:45:23;98.43;;;93.70;;
11269;SDS011;5692;48.956;9.200;2022-12-07T08:47:50;99.55;;;94.75;;
11269;SDS011;5692;48.956;9.200;2022-12-07T08:50:17;95.60;;;91.00;;
11269;SDS011;5692;48.956;9.200;2022-12-07T08:52:44;96.18;;;91.55;;
11269;SDS011;5692;48.956;9.200;2022-12-07T08:55:10;119.40;;;113.65;;
11269;SDS011;5692;48.956;9.200;2022-12-07T08:57:37;112.68;;;107.28;;
11269;SDS011;5692;48.956;9.200;2022-12-07T09:00:04;114.97;;;109.47;;
11269;SDS011;5692;48.956;9.200;2022-12-07T09:02:31;110.95;;;105.63;;
11269;SDS011;5692;48.956;9.200;2022-12-07T09:04:57;106.35;;;101.25;;
11269;SDS011;5692;48.956;9.200;2022-12-07T09:07:23;109.68;;;104.38;;
11269;SDS011;5692;48.956;9.200;2022-12-07T09:09:49;101.53;;;96.63;;
11269;SDS011;5692;48.956;9.200;2022-12-07T09:12:15;117.28;;;111.65;;
11269;SDS011;5692;48.956;9.200;2022-12-07T09:14:41;118.05;;;112.35;;
11269;SDS011;5692;48.956;9.200;2022-12-07T09:17:08;97.93;;;93.22;;
11269;SDS011;5692;48.956;9.200;2022-12-07T09:19:35;107.97;;;102.78;;
11269;SDS011;5692;48.956;9.200;2022-12-07T09:22:01;112.00;;;106.60;;
11269;SDS011;5692;48.956;9.200;2022-12-07T09:24:27;96.57;;;91.93;;
11269;SDS011;5692;48.956;9.200;2022-12-07T09:26:53;118.18;;;112.50;;
11269;SDS011;5692;48.956;9.200;2022-12-07T09:29:19;107.28;;;102.10;;
11269;SDS011;5692;48.956;9.200;2022-12-07T09:31:45;108.50;;;103.30;;
11269;SDS011;5692;48.956;9.200;2022-12-07T09:34:11;107.53;;;102.35;;
11269;SDS011;5692;48.956;9.200;2022-12-07T09:36:37;109.40;;;104.10;;
11269;SDS011;5692;48.956;9.200;2022-12-07T09:39:03;107.85;;;102.65;;
11269;SDS011;5692;48.956;9.200;2022-12-07T09:41:30;119.65;;;113.90;;
11269;SDS011;5692;48.956;9.200;2022-12-07T09:44:02;129.75;;;123.55;;
11269;SDS011;5692;48.956;9.200;2022-12-07T09:46:29;117.95;;;112.28;;
11269;SDS011;5692;48.956;9.200;2022-12-07T09:48:57;113.53;;;108.07;;
11269;SDS011;5692;48.956;9.200;2022-12-07T09:51:23;119.00;;;113.28;;
11269;SDS011;5692;48.956;9.200;2022-12-07T09:53:50;111.32;;;105.97;;
11269;SDS011;5692;48.956;9.200;2022-12-07T09:56:17;114.65;;;109.13;;
11269;SDS011;5692;48.956;9.200;2022-12-07T09:58:43;117.03;;;111.40;;
11269;SDS011;5692;48.956;9.200;2022-12-07T10:01:14;115.80;;;110.22;;
11269;SDS011;5692;48.956;9.200;2022-12-07T10:03:42;105.30;;;100.25;;
11269;SDS011;5692;48.956;9.200;2022-12-07T10:06:10;102.05;;;97.15;;
11269;SDS011;5692;48.956;9.200;2022-12-07T10:08:38;107.22;;;102.05;;
11269;SDS011;5692;48.956;9.200;2022-12-07T10:11:06;101.90;;;97.00;;
11269;SDS011;5692;48.956;9.200;2022-12-07T10:13:48;107.97;;;102.78;;
11269;SDS011;5692;48.956;9.200;2022-12-07T10:16:27;109.55;;;104.25;;
11269;SDS011;5692;48.956;9.200;2022-12-07T10:18:57;111.72;;;106.32;;
11269;SDS011;5692;48.956;9.200;2022-12-07T10:21:42;115.75;;;110.15;;
11269;SDS011;5692;48.956;9.200;2022-12-07T10:24:24;111.93;;;106.53;;
11269;SDS011;5692;48.956;9.200;2022-12-07T10:26:51;120.40;;;114.60;;
11269;SDS011;5692;48.956;9.200;2022-12-07T10:29:36;111.15;;;105.82;;
11269;SDS011;5692;48.956;9.200;2022-12-07T10:34:36;112.57;;;107.18;;
11269;SDS011;5692;48.956;9.200;2022-12-07T10:42:09;110.43;;;105.13;;
11269;SDS011;5692;48.956;9.200;2022-12-07T10:44:41;100.25;;;95.45;;
11269;SDS011;5692;48.956;9.200;2022-12-07T10:47:22;106.93;;;101.78;;
11269;SDS011;5692;48.956;9.200;2022-12-07T10:49:55;112.93;;;107.53;;
11269;SDS011;5692;48.956;9.200;2022-12-07T11:00:14;107.75;;;102.55;;
11269;SDS011;5692;48.956;9.200;2022-12-07T11:07:46;107.80;;;102.63;;
11269;SDS011;5692;48.956;9.200;2022-12-07T11:10:17;120.63;;;114.82;;
11269;SDS011;5692;48.956;9.200;2022-12-07T11:15:16;94.28;;;89.78;;
11269;SDS011;5692;48.956;9.200;2022-12-07T11:25:46;100.82;;;95.97;;
11269;SDS011;5692;48.956;9.200;2022-12-07T11:33:22;102.23;;;97.33;;
11269;SDS011;5692;48.956;9.200;2022-12-07T11:38:24;105.80;;;100.70;;
11269;SDS011;5692;48.956;9.200;2022-12-07T11:40:56;106.55;;;101.45;;
11269;SDS011;5692;48.956;9.200;2022-12-07T11:43:37;103.85;;;98.85;;
11269;SDS011;5692;48.956;9.200;2022-12-07T11:46:11;106.35;;;101.25;;
11269;SDS011;5692;48.956;9.200;2022-12-07T11:48:40;99.35;;;94.55;;
11269;SDS011;5692;48.956;9.200;2022-12-07T11:51:08;104.18;;;99.18;;
11269;SDS011;5692;48.956;9.200;2022-12-07T11:53:46;94.78;;;90.18;;
11269;SDS011;5692;48.956;9.200;2022-12-07T11:58:57;99.70;;;94.90;;
11269;SDS011;5692;48.956;9.200;2022-12-07T12:03:53;101.38;;;96.47;;
11269;SDS011;5692;48.956;9.200;2022-12-07T12:06:21;107.28;;;102.07;;
11269;SDS011;5692;48.956;9.200;2022-12-07T12:22:03;107.18;;;102.03;;
11269;SDS011;5692;48.956;9.200;2022-12-07T12:24:30;114.18;;;108.68;;
11269;SDS011;5692;48.956;9.200;2022-12-07T12:27:08;104.18;;;99.18;;
11269;SDS011;5692;48.956;9.200;2022-12-07T12:29:36;106.65;;;101.53;;
11269;SDS011;5692;48.956;9.200;2022-12-07T12:32:13;111.15;;;105.82;;
11269;SDS011;5692;48.956;9.200;2022-12-07T12:34:42;120.53;;;114.72;;
11269;SDS011;5692;48.956;9.200;2022-12-07T12:42:45;112.35;;;106.95;;
11269;SDS011;5692;48.956;9.200;2022-12-07T12:45:28;107.70;;;102.50;;
11269;SDS011;5692;48.956;9.200;2022-12-07T12:47:58;115.75;;;110.15;;
11269;SDS011;5692;48.956;9.200;2022-12-07T12:50:35;114.15;;;108.65;;
11269;SDS011;5692;48.956;9.200;2022-12-07T12:53:15;106.53;;;101.40;;
11269;SDS011;5692;48.956;9.200;2022-12-07T13:00:46;102.93;;;97.97;;
11269;SDS011;5692;48.956;9.200;2022-12-07T13:03:29;106.45;;;101.32;;
11269;SDS011;5692;48.956;9.200;2022-12-07T13:08:41;117.30;;;111.65;;
11269;SDS011;5692;48.956;9.200;2022-12-07T13:11:27;125.50;;;119.47;;
11269;SDS011;5692;48.956;9.200;2022-12-07T13:14:30;130.60;;;124.32;;
11269;SDS011;5692;48.956;9.200;2022-12-07T13:16:40;127.15;;;121.05;;
11269;SDS011;5692;48.956;9.200;2022-12-07T13:21:51;136.23;;;129.68;;
11269;SDS011;5692;48.956;9.200;2022-12-07T13:24:17;138.88;;;132.20;;
11269;SDS011;5692;48.956;9.200;2022-12-07T13:26:44;131.55;;;125.22;;
11269;SDS011;5692;48.956;9.200;2022-12-07T13:29:14;141.63;;;134.82;;
11269;SDS011;5692;48.956;9.200;2022-12-07T13:36:55;138.35;;;131.73;;
11269;SDS011;5692;48.956;9.200;2022-12-07T13:39:22;152.43;;;145.10;;
11269;SDS011;5692;48.956;9.200;2022-12-07T13:41:49;132.57;;;126.22;;
11269;SDS011;5692;48.956;9.200;2022-12-07T13:44:17;134.23;;;127.80;;
11269;SDS011;5692;48.956;9.200;2022-12-07T13:46:54;143.48;;;136.57;;
11269;SDS011;5692;48.956;9.200;2022-12-07T13:49:26;144.80;;;137.85;;
11269;SDS011;5692;48.956;9.200;2022-12-07T13:51:53;149.55;;;142.35;;
11269;SDS011;5692;48.956;9.200;2022-12-07T13:54:19;136.45;;;129.90;;
11269;SDS011;5692;48.956;9.200;2022-12-07T13:56:50;143.38;;;136.50;;
11269;SDS011;5692;48.956;9.200;2022-12-07T13:59:18;138.00;;;131.38;;
11269;SDS011;5692;48.956;9.200;2022-12-07T14:01:45;130.70;;;124.43;;
11269;SDS011;5692;48.956;9.200;2022-12-07T14:04:16;140.18;;;133.48;;
11269;SDS011;5692;48.956;9.200;2022-12-07T14:06:49;142.30;;;135.50;;
11269;SDS011;5692;48.956;9.200;2022-12-07T14:09:25;129.07;;;122.88;;
11269;SDS011;5692;48.956;9.200;2022-12-07T14:11:54;125.43;;;119.43;;
11269;SDS011;5692;48.956;9.200;2022-12-07T14:14:22;131.13;;;124.82;;
11269;SDS011;5692;48.956;9.200;2022-12-07T14:16:58;111.93;;;106.53;;
11269;SDS011;5692;48.956;9.200;2022-12-07T14:19:41;112.70;;;107.30;;
11269;SDS011;5692;48.956;9.200;2022-12-07T14:22:09;107.03;;;101.88;;
11269;SDS011;5692;48.956;9.200;2022-12-07T14:24:43;104.70;;;99.68;;
11269;SDS011;5692;48.956;9.200;2022-12-07T14:27:19;96.68;;;92.00;;
11269;SDS011;5692;48.956;9.200;2022-12-07T14:29:46;106.53;;;101.43;;
11269;SDS011;5692;48.956;9.200;2022-12-07T14:34:41;103.72;;;98.75;;
11269;SDS011;5692;48.956;9.200;2022-12-07T14:37:08;104.73;;;99.73;;
11269;SDS011;5692;48.956;9.200;2022-12-07T14:39:35;114.80;;;109.30;;
11269;SDS011;5692;48.956;9.200;2022-12-07T14:42:01;112.50;;;107.10;;
11269;SDS011;5692;48.956;9.200;2022-12-07T14:44:27;110.05;;;104.78;;
11269;SDS011;5692;48.956;9.200;2022-12-07T14:46:53;105.57;;;100.47;;
11269;SDS011;5692;48.956;9.200;2022-12-07T14:49:19;105.13;;;100.07;;
11269;SDS011;5692;48.956;9.200;2022-12-07T14:51:46;106.50;;;101.40;;
11269;SDS011;5692;48.956;9.200;2022-12-07T14:54:14;106.20;;;101.10;;
11269;SDS011;5692;48.956;9.200;2022-12-07T14:56:41;113.53;;;108.07;;
11269;SDS011;5692;48.956;9.200;2022-12-07T14:59:08;110.75;;;105.45;;
11269;SDS011;5692;48.956;9.200;2022-12-07T15:01:34;110.28;;;104.97;;
11269;SDS011;5692;48.956;9.200;2022-12-07T15:04:00;116.00;;;110.43;;
11269;SDS011;5692;48.956;9.200;2022-12-07T15:06:27;102.82;;;97.88;;
11269;SDS011;5692;48.956;9.200;2022-12-07T15:08:53;111.80;;;106.40;;
11269;SDS011;5692;48.956;9.200;2022-12-07T15:11:20;103.80;;;98.80;;
11269;SDS011;5692;48.956;9.200;2022-12-07T15:13:46;110.30;;;105.00;;
11269;SDS011;5692;48.956;9.200;2022-12-07T15:16:31;115.38;;;109.85;;
11269;SDS011;5692;48.956;9.200;2022-12-07T15:18:57;106.70;;;101.60;;
11269;SDS011;5692;48.956;9.200;2022-12-07T15:21:23;110.13;;;104.82;;
11269;SDS011;5692;48.956;9.200;2022-12-07T15:23:49;112.68;;;107.28;;
11269;SDS011;5692;48.956;9.200;2022-12-07T15:26:15;119.22;;;113.53;;
11269;SDS011;5692;48.956;9.200;2022-12-07T15:28:41;109.38;;;104.13;;
11269;SDS011;5692;48.956;9.200;2022-12-07T15:31:13;119.95;;;114.18;;
11269;SDS011;5692;48.956;9.200;2022-12-07T15:33:40;129.32;;;123.13;;
11269;SDS011;5692;48.956;9.200;2022-12-07T15:36:06;120.30;;;114.50;;
11269;SDS011;5692;48.956;9.200;2022-12-07T15:38:32;116.47;;;110.88;;
11269;SDS011;5692;48.956;9.200;2022-12-07T15:40:58;112.15;;;106.75;;
11269;SDS011;5692;48.956;9.200;2022-12-07T15:43:24;107.55;;;102.38;;
11269;SDS011;5692;48.956;9.200;2022-12-07T15:46:09;113.38;;;107.93;;
11269;SDS011;5692;48.956;9.200;2022-12-07T15:48:35;114.60;;;109.10;;
11269;SDS011;5692;48.956;9.200;2022-12-07T15:51:04;110.80;;;105.45;;
11269;SDS011;5692;48.956;9.200;2022-12-07T15:53:31;111.82;;;106.45;;
11269;SDS011;5692;48.956;9.200;2022-12-07T15:55:57;108.97;;;103.75;;
11269;SDS011;5692;48.956;9.200;2022-12-07T15:58:23;106.85;;;101.72;;
11269;SDS011;5692;48.956;9.200;2022-12-07T16:00:49;111.07;;;105.72;;
11269;SDS011;5692;48.956;9.200;2022-12-07T16:03:15;111.57;;;106.18;;
11269;SDS011;5692;48.956;9.200;2022-12-07T16:05:41;124.35;;;118.35;;